createdAt,value
2023-05-02T00:02:32.332Z,101242.88
2023-05-02T00:05:35.823Z,101239.34
2023-05-02T00:08:40.349Z,101231.41
2023-05-02T00:11:43.149Z,101228.75
2023-05-02T00:14:45.888Z,101231.41
2023-05-02T00:17:48.697Z,101228.88
2023-05-02T00:20:51.618Z,101223.63
2023-05-02T00:23:56.941Z,101222.66
2023-05-02T00:26:59.729Z,101229.81
2023-05-02T00:30:03.140Z,101228.06
2023-05-02T00:33:07.088Z,101220.09
2023-05-02T00:36:15.182Z,101228.06
2023-05-02T00:39:19.320Z,101229.06
2023-05-02T00:42:22.179Z,101221.03
2023-05-02T00:45:25.119Z,101219.28
2023-05-02T00:48:28.069Z,101220.19
2023-05-02T00:51:31.098Z,101218.50
2023-05-02T00:54:35.277Z,101217.53
2023-05-02T00:57:38.134Z,101216.63
2023-05-02T01:01:02.277Z,101214.88
2023-05-02T01:04:17.290Z,101212.38
2023-05-02T01:07:35.914Z,101213.94
2023-05-02T01:10:51.075Z,101213.06
2023-05-02T01:13:55.855Z,101214.75
2023-05-02T01:17:04.364Z,101220.16
2023-05-02T01:20:11.100Z,101221.94
2023-05-02T01:23:23.860Z,101221.03
2023-05-02T01:26:36.343Z,101212.22
2023-05-02T01:29:42.811Z,101218.50
2023-05-02T01:32:48.311Z,101226.47
2023-05-02T01:35:53.570Z,101222.16
2023-05-02T01:38:57.935Z,101229.22
2023-05-02T01:42:04.602Z,101223.81
2023-05-02T01:45:11.460Z,101223.91
2023-05-02T01:48:15.978Z,101227.41
2023-05-02T01:51:21.741Z,101229.22
2023-05-02T01:54:27.615Z,101229.06
2023-05-02T01:57:30.613Z,101235.34
2023-05-02T02:00:35.499Z,101238.00
2023-05-02T02:03:38.578Z,101237.16
2023-05-02T02:06:45.610Z,101239.00
2023-05-02T02:09:48.587Z,101240.88
2023-05-02T02:12:54.561Z,101247.13
2023-05-02T02:16:02.983Z,101248.88
2023-05-02T02:19:08.448Z,101249.78
2023-05-02T02:22:15.220Z,101255.13
2023-05-02T02:25:19.441Z,101265.78
2023-05-02T02:28:23.083Z,101265.78
2023-05-02T02:31:31.883Z,101264.97
2023-05-02T02:34:34.833Z,101265.84
2023-05-02T02:37:43.128Z,101264.97
2023-05-02T02:40:48.840Z,101269.41
2023-05-02T02:44:01.339Z,101275.63
2023-05-02T02:47:12.649Z,101276.63
2023-05-02T02:50:21.156Z,101285.50
2023-05-02T02:53:28.658Z,101287.28
2023-05-02T02:56:40.197Z,101292.69
2023-05-02T02:59:50.779Z,101306.00
2023-05-02T03:02:55.947Z,101306.97
2023-05-02T03:05:59.148Z,101306.16
2023-05-02T03:09:02.677Z,101319.50
2023-05-02T03:12:06.512Z,101321.19
2023-05-02T03:15:31.396Z,101330.97
2023-05-02T03:18:37.030Z,101327.47
2023-05-02T03:21:39.880Z,101342.53
2023-05-02T03:24:48.937Z,101345.19
2023-05-02T03:27:52.200Z,101338.94
2023-05-02T03:30:55.259Z,101349.59
2023-05-02T03:33:59.685Z,101348.66
2023-05-02T03:37:02.535Z,101356.66
2023-05-02T03:40:07.539Z,101359.25
2023-05-02T03:43:11.499Z,101354.78
2023-05-02T03:46:14.882Z,101365.44
2023-05-02T03:49:21.852Z,101371.66
2023-05-02T03:52:28.463Z,101378.69
2023-05-02T03:55:31.277Z,101390.22
2023-05-02T03:58:36.139Z,101386.66
2023-05-02T04:01:39.549Z,101388.44
2023-05-02T04:04:45.026Z,101390.22
2023-05-02T04:07:51.130Z,101398.22
2023-05-02T04:10:54.418Z,101403.56
2023-05-02T04:13:57.757Z,101408.94
2023-05-02T04:17:00.727Z,101415.16
2023-05-02T04:20:16.353Z,101421.41
2023-05-02T04:23:23.962Z,101423.19
2023-05-02T04:26:31.711Z,101421.41
2023-05-02T04:29:40.967Z,101440.06
2023-05-02T04:32:45.235Z,101451.59
2023-05-02T04:35:49.849Z,101457.78
2023-05-02T04:38:53.961Z,101460.47
2023-05-02T04:41:56.887Z,101461.38
2023-05-02T04:45:02.128Z,101464.97
2023-05-02T04:48:05.899Z,101470.31
2023-05-02T04:51:10.376Z,101465.91
2023-05-02T04:54:13.378Z,101473.00
2023-05-02T04:57:18.347Z,101472.16
2023-05-02T05:00:26.024Z,101477.50
2023-05-02T05:03:30.000Z,101479.28
2023-05-02T05:06:35.986Z,101484.56
2023-05-02T05:09:40.366Z,101486.34
2023-05-02T05:12:43.198Z,101494.34
2023-05-02T05:15:47.086Z,101495.22
2023-05-02T05:18:53.791Z,101494.28
2023-05-02T05:21:57.953Z,101493.41
2023-05-02T05:25:00.782Z,101507.63
2023-05-02T05:28:06.644Z,101512.16
2023-05-02T05:31:16.814Z,101515.66
2023-05-02T05:34:22.900Z,101519.25
2023-05-02T05:40:33.435Z,101512.19
2023-05-02T05:43:38.096Z,101521.06
2023-05-02T05:46:42.100Z,101522.00
2023-05-02T05:49:47.120Z,101538.81
2023-05-02T05:52:51.436Z,101541.47
2023-05-02T05:55:54.696Z,101538.78
2023-05-02T05:58:57.437Z,101537.84
2023-05-02T06:02:00.349Z,101546.78
2023-05-02T06:05:03.406Z,101544.97
2023-05-02T06:08:08.061Z,101559.16
2023-05-02T06:11:11.791Z,101565.44
2023-05-02T06:14:14.658Z,101574.28
2023-05-02T06:17:17.851Z,101586.75
2023-05-02T06:20:20.713Z,101589.41
2023-05-02T06:23:25.792Z,101593.00
2023-05-02T06:26:28.571Z,101612.47
2023-05-02T06:29:31.354Z,101610.75
2023-05-02T06:32:34.221Z,101619.56
2023-05-02T06:35:37.348Z,101619.56
2023-05-02T06:38:41.520Z,101633.69
2023-05-02T06:41:44.285Z,101638.06
2023-05-02T06:44:52.562Z,101635.41
2023-05-02T06:47:55.401Z,101646.94
2023-05-02T06:50:58.225Z,101650.47
2023-05-02T06:54:02.296Z,101649.59
2023-05-02T06:57:05.119Z,101653.16
2023-05-02T07:00:09.194Z,101655.84
2023-05-02T07:03:12.651Z,101664.72
2023-05-02T07:06:15.574Z,101665.59
2023-05-02T07:09:19.757Z,101677.06
2023-05-02T07:12:22.508Z,101679.66
2023-05-02T07:15:25.229Z,101685.88
2023-05-02T07:18:28.032Z,101688.47
2023-05-02T07:21:30.864Z,101691.97
2023-05-02T07:24:34.972Z,101693.72
2023-05-02T07:27:37.898Z,101695.47
2023-05-02T07:30:40.774Z,101703.47
2023-05-02T07:33:43.522Z,101704.31
2023-05-02T07:36:46.298Z,101698.94
2023-05-02T07:39:50.433Z,101695.41
2023-05-02T07:42:53.185Z,101704.28
2023-05-02T07:45:56.253Z,101706.94
2023-05-02T07:48:59.108Z,101706.00
2023-05-02T07:52:01.828Z,101714.00
2023-05-02T07:55:06.695Z,101709.53
2023-05-02T07:58:09.466Z,101726.34
2023-05-02T08:01:12.297Z,101727.22
2023-05-02T08:04:15.299Z,101727.22
2023-05-02T08:07:18.387Z,101739.63
2023-05-02T08:10:24.256Z,101736.03
2023-05-02T08:13:27.224Z,101738.69
2023-05-02T08:16:30.075Z,101737.75
2023-05-02T08:19:33.027Z,101748.44
2023-05-02T08:22:35.812Z,101744.03
2023-05-02T08:25:40.157Z,101754.69
2023-05-02T08:28:42.932Z,101757.38
2023-05-02T08:31:45.762Z,101763.59
2023-05-02T08:34:48.598Z,101764.41
2023-05-02T08:37:51.394Z,101759.97
2023-05-02T08:40:55.562Z,101776.84
2023-05-02T08:43:58.910Z,101772.38
2023-05-02T08:47:03.057Z,101777.66
2023-05-02T08:50:07.839Z,101783.88
2023-05-02T08:53:11.569Z,101792.72
2023-05-02T08:56:15.730Z,101791.88
2023-05-02T08:59:18.731Z,101805.13
2023-05-02T09:02:36.391Z,101811.38
2023-05-02T09:05:42.718Z,101821.13
2023-05-02T09:08:48.729Z,101826.47
2023-05-02T09:11:53.506Z,101814.91
2023-05-02T09:15:10.796Z,101828.25
2023-05-02T09:18:21.095Z,101838.00
2023-05-02T09:21:25.555Z,101838.00
2023-05-02T09:24:28.795Z,101851.28
2023-05-02T09:27:51.373Z,101845.00
2023-05-02T09:31:08.032Z,101853.00
2023-05-02T09:34:13.044Z,101847.66
2023-05-02T09:37:35.898Z,101853.00
2023-05-02T09:40:39.012Z,101853.00
2023-05-02T09:43:43.447Z,101859.22
2023-05-02T09:46:47.980Z,101855.66
2023-05-02T09:49:50.797Z,101863.66
2023-05-02T09:53:02.655Z,101875.22
2023-05-02T09:56:06.449Z,101874.34
2023-05-02T09:59:17.663Z,101879.66
2023-05-02T10:02:21.873Z,101886.75
2023-05-02T10:05:25.738Z,101881.44
2023-05-02T10:08:29.572Z,101893.81
2023-05-02T10:11:34.646Z,101894.69
2023-05-02T10:14:41.655Z,101896.47
2023-05-02T10:17:50.603Z,101904.47
2023-05-02T10:20:58.138Z,101900.91
2023-05-02T10:24:03.985Z,101908.09
2023-05-02T10:27:07.405Z,101918.75
2023-05-02T10:30:15.083Z,101928.53
2023-05-02T10:33:19.399Z,101933.00
2023-05-02T10:36:23.716Z,101941.00
2023-05-02T10:39:26.756Z,101933.06
2023-05-02T10:42:31.222Z,101931.28
2023-05-02T10:45:36.474Z,101941.94
2023-05-02T10:48:39.235Z,101942.81
2023-05-02T10:51:44.288Z,101954.31
2023-05-02T10:54:47.080Z,101970.31
2023-05-02T10:58:24.351Z,101969.41
2023-05-02T11:01:42.097Z,101972.09
2023-05-02T11:05:02.535Z,101977.41
2023-05-02T11:08:31.532Z,101981.81
2023-05-02T11:11:41.865Z,101987.16
2023-05-02T11:14:52.498Z,101988.09
2023-05-02T11:18:04.093Z,101996.97
2023-05-02T11:21:27.526Z,101995.13
2023-05-02T11:24:40.785Z,101994.28
2023-05-02T11:27:45.620Z,102004.09
2023-05-02T11:30:50.930Z,102005.81
2023-05-02T11:33:58.980Z,102002.25
2023-05-02T11:37:02.072Z,102008.47
2023-05-02T11:40:15.203Z,102017.34
2023-05-02T11:43:19.827Z,102027.13
2023-05-02T11:46:23.052Z,102033.34
2023-05-02T11:49:27.430Z,102033.41
2023-05-02T11:52:30.745Z,102042.28
2023-05-02T11:55:33.605Z,102052.97
2023-05-02T11:58:36.338Z,102046.75
2023-05-02T12:01:49.362Z,102047.63
2023-05-02T12:04:53.514Z,102057.41
2023-05-02T12:07:56.299Z,102069.81
2023-05-02T12:10:59.007Z,102063.63
2023-05-02T12:14:01.801Z,102075.16
2023-05-02T12:17:05.283Z,102066.25
2023-05-02T12:20:11.186Z,102069.81
2023-05-02T12:23:14.455Z,102069.81
2023-05-02T12:26:18.175Z,102077.81
2023-05-02T12:29:20.958Z,102084.91
2023-05-02T12:32:29.879Z,102088.47
2023-05-02T12:35:34.871Z,102101.47
2023-05-02T12:38:37.905Z,102092.53
2023-05-02T12:41:43.674Z,102092.88
2023-05-02T12:44:48.433Z,102096.91
2023-05-02T12:47:51.220Z,102093.91
2023-05-02T12:50:56.537Z,102102.84
2023-05-02T12:53:59.592Z,102099.28
2023-05-02T12:57:02.981Z,102103.91
2023-05-02T13:00:07.593Z,102108.28
2023-05-02T13:03:11.430Z,102113.75
2023-05-02T13:06:15.615Z,102116.03
2023-05-02T13:09:18.718Z,102114.72
2023-05-02T13:12:21.522Z,102117.94
2023-05-02T13:15:24.438Z,102122.09
2023-05-02T13:18:28.123Z,102128.97
2023-05-02T13:21:32.614Z,102121.63
2023-05-02T13:24:35.551Z,102132.00
2023-05-02T13:27:38.284Z,102136.31
2023-05-02T13:30:41.259Z,102142.34
2023-05-02T13:33:44.038Z,102142.22
2023-05-02T13:36:48.380Z,102150.09
2023-05-02T13:39:51.155Z,102142.88
2023-05-02T13:42:53.962Z,102149.91
2023-05-02T13:45:56.684Z,102152.47
2023-05-02T13:48:59.467Z,102158.63
2023-05-02T13:52:03.606Z,102155.00
2023-05-02T13:55:08.166Z,102162.94
2023-05-02T13:58:10.934Z,102167.31
2023-05-02T14:01:13.751Z,102164.63
2023-05-02T14:04:16.576Z,102171.69
2023-05-02T14:07:20.687Z,102171.66
2023-05-02T14:10:23.444Z,102170.75
2023-05-02T14:13:26.226Z,102190.22
2023-05-02T14:16:30.070Z,102191.13
2023-05-02T14:19:33.041Z,102187.50
2023-05-02T14:22:37.195Z,102194.59
2023-05-02T14:25:40.086Z,102192.78
2023-05-02T14:28:42.856Z,102202.56
2023-05-02T14:31:46.058Z,102191.88
2023-05-02T14:34:48.853Z,102199.00
2023-05-02T14:37:53.012Z,102197.22
2023-05-02T14:40:56.078Z,102206.09
2023-05-02T14:43:58.934Z,102208.78
2023-05-02T14:47:02.403Z,102209.66
2023-05-02T14:50:06.347Z,102216.75
2023-05-02T14:53:11.757Z,102223.13
2023-05-02T14:56:17.191Z,102220.69
2023-05-02T14:59:20.099Z,102231.47
2023-05-02T15:02:23.104Z,102225.25
2023-05-02T15:05:26.074Z,102240.34
2023-05-02T15:08:30.148Z,102238.56
2023-05-02T15:11:33.116Z,102241.19
2023-05-02T15:14:36.050Z,102247.34
2023-05-02T15:17:39.383Z,102250.00
2023-05-02T15:20:42.487Z,102255.28
2023-05-02T15:23:47.149Z,102245.50
2023-05-02T15:26:49.938Z,102252.63
2023-05-02T15:29:52.706Z,102257.84
2023-05-02T15:32:55.616Z,102257.78
2023-05-02T15:35:59.344Z,102261.34
2023-05-02T15:39:03.464Z,102262.16
2023-05-02T15:42:06.751Z,102273.72
2023-05-02T15:45:13.892Z,102264.78
2023-05-02T15:48:16.615Z,102260.34
2023-05-02T15:51:19.616Z,102262.09
2023-05-02T15:54:24.283Z,102261.16
2023-05-02T15:57:27.107Z,102260.25
2023-05-02T16:00:30.359Z,102276.22
2023-05-02T16:03:34.267Z,102273.53
2023-05-02T16:06:37.440Z,102274.41
2023-05-02T16:09:42.463Z,102274.41
2023-05-02T16:12:45.207Z,102276.16
2023-05-02T16:15:48.874Z,102272.59
2023-05-02T16:18:51.605Z,102275.25
2023-05-02T16:21:54.299Z,102268.13
2023-05-02T16:24:58.456Z,102274.31
2023-05-02T16:28:01.298Z,102276.09
2023-05-02T16:31:07.489Z,102273.41
2023-05-02T16:34:10.343Z,102272.47
2023-05-02T16:37:13.677Z,102268.91
2023-05-02T16:40:18.000Z,102270.72
2023-05-02T16:43:21.001Z,102280.47
2023-05-02T16:46:23.965Z,102275.09
2023-05-02T16:49:26.781Z,102282.22
2023-05-02T16:52:29.736Z,102286.59
2023-05-02T16:55:33.840Z,102282.09
2023-05-02T16:58:36.582Z,102287.44
2023-05-02T17:01:39.426Z,102290.06
2023-05-02T17:04:42.409Z,102284.78
2023-05-02T17:07:46.148Z,102299.88
2023-05-02T17:10:51.497Z,102293.66
2023-05-02T17:13:55.009Z,102299.00
2023-05-02T17:16:57.820Z,102299.88
2023-05-02T17:20:01.295Z,102298.09
2023-05-02T17:23:04.316Z,102302.56
2023-05-02T17:26:14.356Z,102299.03
2023-05-02T17:29:17.300Z,102303.50
2023-05-02T17:32:20.082Z,102299.03
2023-05-02T17:35:23.074Z,102307.00
2023-05-02T17:38:26.699Z,102306.09
2023-05-02T17:41:30.918Z,102307.88
2023-05-02T17:44:36.030Z,102311.44
2023-05-02T17:47:38.916Z,102317.66
2023-05-02T17:50:42.064Z,102321.22
2023-05-02T17:53:44.821Z,102315.88
2023-05-02T17:56:50.615Z,102323.00
2023-05-02T17:59:56.598Z,102325.66
2023-05-02T18:02:59.764Z,102331.00
2023-05-02T18:06:02.803Z,102329.22
2023-05-02T18:09:05.584Z,102336.31
2023-05-02T18:12:15.743Z,102342.53
2023-05-02T18:15:18.765Z,102346.94
2023-05-02T18:18:22.332Z,102357.53
2023-05-02T18:21:25.848Z,102353.09
2023-05-02T18:24:29.264Z,102350.38
2023-05-02T18:27:33.397Z,102360.09
2023-05-02T18:30:37.318Z,102356.59
2023-05-02T18:33:41.439Z,102356.53
2023-05-02T18:36:45.060Z,102357.44
2023-05-02T18:39:47.863Z,102360.09
2023-05-02T18:42:52.084Z,102364.53
2023-05-02T18:45:54.926Z,102353.00
2023-05-02T18:48:57.900Z,102360.09
2023-05-02T18:52:00.969Z,102355.59
2023-05-02T18:55:05.034Z,102362.72
2023-05-02T18:58:09.213Z,102364.44
2023-05-02T19:01:14.799Z,102368.94
2023-05-02T19:04:18.708Z,102374.22
2023-05-02T19:07:21.466Z,102382.22
2023-05-02T19:10:24.272Z,102378.66
2023-05-02T19:13:29.543Z,102384.88
2023-05-02T19:16:34.836Z,102387.56
2023-05-02T19:19:37.694Z,102386.66
2023-05-02T19:22:40.937Z,102387.56
2023-05-02T19:25:43.761Z,102386.66
2023-05-02T19:28:47.901Z,102390.16
2023-05-02T19:31:51.046Z,102396.44
2023-05-02T19:34:54.489Z,102399.94
2023-05-02T19:37:57.511Z,102405.22
2023-05-02T19:41:00.824Z,102406.09
2023-05-02T19:44:05.073Z,102413.19
2023-05-02T19:47:07.827Z,102419.41
2023-05-02T19:50:11.300Z,102420.28
2023-05-02T19:53:14.104Z,102428.34
2023-05-02T19:56:16.820Z,102424.72
2023-05-02T19:59:20.942Z,102430.94
2023-05-02T20:02:23.796Z,102430.06
2023-05-02T20:05:26.692Z,102431.84
2023-05-02T20:08:31.398Z,102438.91
2023-05-02T20:11:34.260Z,102440.69
2023-05-02T20:14:39.834Z,102445.13
2023-05-02T20:17:42.605Z,102446.84
2023-05-02T20:20:45.642Z,102450.41
2023-05-02T20:23:48.404Z,102450.38
2023-05-02T20:26:51.156Z,102449.50
2023-05-02T20:29:55.304Z,102450.38
2023-05-02T20:33:10.541Z,102445.91
2023-05-02T20:36:18.135Z,102451.25
2023-05-02T20:39:21.907Z,102468.13
2023-05-02T20:42:25.606Z,102465.53
2023-05-02T20:45:29.838Z,102466.41
2023-05-02T20:48:34.020Z,102466.41
2023-05-02T20:51:36.888Z,102470.84
2023-05-02T20:54:39.651Z,102474.41
2023-05-02T20:57:42.404Z,102474.41
2023-05-02T21:00:52.091Z,102469.09
2023-05-02T21:03:56.957Z,102478.81
2023-05-02T21:07:00.082Z,102485.03
2023-05-02T21:10:02.973Z,102490.38
2023-05-02T21:13:05.986Z,102485.94
2023-05-02T21:16:16.958Z,102497.44
2023-05-02T21:19:20.125Z,102491.25
2023-05-02T21:22:22.958Z,102496.59
2023-05-02T21:25:25.795Z,102495.69
2023-05-02T21:28:29.077Z,102504.59
2023-05-02T21:31:34.438Z,102495.69
2023-05-02T21:34:37.323Z,102509.03
2023-05-02T21:37:40.141Z,102497.53
2023-05-02T21:40:42.889Z,102495.88
2023-05-02T21:43:45.889Z,102508.38
2023-05-02T21:46:50.563Z,102504.88
2023-05-02T21:49:54.663Z,102505.88
2023-05-02T21:52:57.429Z,102517.50
2023-05-02T21:56:00.218Z,102517.53
2023-05-02T21:59:02.966Z,102505.16
2023-05-02T22:02:07.211Z,102509.53
2023-05-02T22:05:11.422Z,102513.94
2023-05-02T22:08:14.357Z,102510.28
2023-05-02T22:11:18.051Z,102514.59
2023-05-02T22:14:22.068Z,102518.06
2023-05-02T22:17:28.355Z,102522.44
2023-05-02T22:20:31.876Z,102512.59
2023-05-02T22:23:34.854Z,102508.94
2023-05-02T22:26:37.712Z,102520.47
2023-05-02T22:29:40.433Z,102517.78
2023-05-02T22:32:44.508Z,102520.38
2023-05-02T22:35:47.386Z,102524.84
2023-05-02T22:38:50.349Z,102525.72
2023-05-02T22:41:53.061Z,102527.50
2023-05-02T22:44:55.793Z,102527.50
2023-05-02T22:48:00.195Z,102531.13
2023-05-02T22:51:03.085Z,102534.69
2023-05-02T22:54:06.008Z,102536.47
2023-05-02T22:57:08.814Z,102540.97
2023-05-02T23:00:13.094Z,102550.75
2023-05-02T23:03:17.247Z,102552.53
2023-05-02T23:06:20.204Z,102548.13
2023-05-02T23:09:22.981Z,102550.81
2023-05-02T23:12:25.708Z,102559.78
2023-05-02T23:15:28.422Z,102558.13
2023-05-02T23:18:32.698Z,102556.47
2023-05-02T23:21:35.425Z,102560.97
2023-05-02T23:24:38.233Z,102566.28
2023-05-02T23:27:41.004Z,102570.72
2023-05-02T23:30:43.832Z,102573.47
2023-05-02T23:33:48.099Z,102577.03
2023-05-02T23:36:53.247Z,102572.63
2023-05-02T23:39:57.698Z,102577.97
2023-05-02T23:43:01.178Z,102577.13
2023-05-02T23:46:03.891Z,102572.63
2023-05-02T23:49:08.022Z,102565.50
2023-05-02T23:52:10.835Z,102564.72
2023-05-02T23:55:13.577Z,102563.84
2023-05-02T23:58:16.524Z,102563.03
